sensor_id;sensor_type;location;lat;lon;timestamp;P1;durP1;ratioP1;P2;durP2;ratioP2
64795;SDS011;51229;51.980;6.722;2022-12-07T00:01:33;15.45;;;9.77;;
64795;SDS011;51229;51.980;6.722;2022-12-07T00:04:00;16.60;;;9.55;;
64795;SDS011;51229;51.980;6.722;2022-12-07T00:06:34;15.73;;;8.82;;
64795;SDS011;51229;51.980;6.722;2022-12-07T00:09:02;12.93;;;7.53;;
64795;SDS011;51229;51.980;6.722;2022-12-07T00:11:28;14.45;;;8.65;;
64795;SDS011;51229;51.980;6.722;2022-12-07T00:13:58;14.27;;;9.63;;
64795;SDS011;51229;51.980;6.722;2022-12-07T00:16:28;14.18;;;9.05;;
64795;SDS011;51229;51.980;6.722;2022-12-07T00:18:55;14.75;;;9.38;;
64795;SDS011;51229;51.980;6.722;2022-12-07T00:21:22;14.70;;;8.90;;
64795;SDS011;51229;51.980;6.722;2022-12-07T00:23:50;13.90;;;9.27;;
64795;SDS011;51229;51.980;6.722;2022-12-07T00:26:19;13.48;;;8.82;;
64795;SDS011;51229;51.980;6.722;2022-12-07T00:28:50;13.38;;;8.00;;
64795;SDS011;51229;51.980;6.722;2022-12-07T00:31:18;17.17;;;9.32;;
64795;SDS011;51229;51.980;6.722;2022-12-07T00:33:45;14.75;;;8.90;;
64795;SDS011;51229;51.980;6.722;2022-12-07T00:36:13;16.30;;;9.88;;
64795;SDS011;51229;51.980;6.722;2022-12-07T00:38:41;17.65;;;8.95;;
64795;SDS011;51229;51.980;6.722;2022-12-07T00:41:08;13.30;;;8.63;;
64795;SDS011;51229;51.980;6.722;2022-12-07T00:43:45;14.65;;;8.95;;
64795;SDS011;51229;51.980;6.722;2022-12-07T00:46:12;14.65;;;9.05;;
64795;SDS011;51229;51.980;6.722;2022-12-07T00:48:38;12.98;;;8.25;;
64795;SDS011;51229;51.980;6.722;2022-12-07T00:51:05;16.67;;;9.40;;
64795;SDS011;51229;51.980;6.722;2022-12-07T00:53:33;14.25;;;9.20;;
64795;SDS011;51229;51.980;6.722;2022-12-07T00:56:06;13.48;;;8.88;;
64795;SDS011;51229;51.980;6.722;2022-12-07T00:58:33;14.15;;;8.70;;
64795;SDS011;51229;51.980;6.722;2022-12-07T01:01:02;12.48;;;8.18;;
64795;SDS011;51229;51.980;6.722;2022-12-07T01:03:29;14.48;;;8.40;;
64795;SDS011;51229;51.980;6.722;2022-12-07T01:05:55;13.95;;;7.75;;
64795;SDS011;51229;51.980;6.722;2022-12-07T01:08:22;12.10;;;7.65;;
64795;SDS011;51229;51.980;6.722;2022-12-07T01:10:49;11.77;;;8.27;;
64795;SDS011;51229;51.980;6.722;2022-12-07T01:13:15;11.23;;;6.28;;
64795;SDS011;51229;51.980;6.722;2022-12-07T01:15:42;13.00;;;6.97;;
64795;SDS011;51229;51.980;6.722;2022-12-07T01:18:09;13.10;;;7.72;;
64795;SDS011;51229;51.980;6.722;2022-12-07T01:20:35;11.45;;;7.00;;
64795;SDS011;51229;51.980;6.722;2022-12-07T01:23:02;15.82;;;7.38;;
64795;SDS011;51229;51.980;6.722;2022-12-07T01:25:28;13.60;;;7.63;;
64795;SDS011;51229;51.980;6.722;2022-12-07T01:27:53;13.35;;;7.13;;
64795;SDS011;51229;51.980;6.722;2022-12-07T01:30:19;10.07;;;6.30;;
64795;SDS011;51229;51.980;6.722;2022-12-07T01:32:45;10.10;;;6.68;;
64795;SDS011;51229;51.980;6.722;2022-12-07T01:35:10;11.43;;;6.38;;
64795;SDS011;51229;51.980;6.722;2022-12-07T01:37:36;10.10;;;6.32;;
64795;SDS011;51229;51.980;6.722;2022-12-07T01:40:04;10.48;;;6.03;;
64795;SDS011;51229;51.980;6.722;2022-12-07T01:42:33;10.57;;;6.00;;
64795;SDS011;51229;51.980;6.722;2022-12-07T01:47:43;14.73;;;6.30;;
64795;SDS011;51229;51.980;6.722;2022-12-07T01:50:20;10.57;;;5.82;;
64795;SDS011;51229;51.980;6.722;2022-12-07T01:52:49;8.93;;;5.70;;
64795;SDS011;51229;51.980;6.722;2022-12-07T01:55:17;9.02;;;5.65;;
64795;SDS011;51229;51.980;6.722;2022-12-07T01:57:45;9.00;;;5.30;;
64795;SDS011;51229;51.980;6.722;2022-12-07T02:00:13;10.10;;;5.68;;
64795;SDS011;51229;51.980;6.722;2022-12-07T02:05:17;9.50;;;5.50;;
64795;SDS011;51229;51.980;6.722;2022-12-07T02:07:44;11.23;;;5.65;;
64795;SDS011;51229;51.980;6.722;2022-12-07T02:10:16;8.18;;;5.50;;
64795;SDS011;51229;51.980;6.722;2022-12-07T02:12:47;9.20;;;5.40;;
64795;SDS011;51229;51.980;6.722;2022-12-07T02:15:16;8.82;;;4.95;;
64795;SDS011;51229;51.980;6.722;2022-12-07T02:17:55;9.50;;;5.15;;
64795;SDS011;51229;51.980;6.722;2022-12-07T02:20:32;7.78;;;5.00;;
64795;SDS011;51229;51.980;6.722;2022-12-07T02:28:47;9.02;;;4.85;;
64795;SDS011;51229;51.980;6.722;2022-12-07T02:31:33;8.32;;;4.47;;
64795;SDS011;51229;51.980;6.722;2022-12-07T02:37:02;8.15;;;3.97;;
64795;SDS011;51229;51.980;6.722;2022-12-07T02:39:44;9.48;;;3.92;;
64795;SDS011;51229;51.980;6.722;2022-12-07T02:42:17;7.03;;;4.18;;
64795;SDS011;51229;51.980;6.722;2022-12-07T02:44:48;7.95;;;4.03;;
64795;SDS011;51229;51.980;6.722;2022-12-07T02:47:16;9.10;;;4.03;;
64795;SDS011;51229;51.980;6.722;2022-12-07T02:49:44;8.73;;;3.75;;
64795;SDS011;51229;51.980;6.722;2022-12-07T02:52:10;9.68;;;4.32;;
64795;SDS011;51229;51.980;6.722;2022-12-07T02:54:36;9.48;;;4.28;;
64795;SDS011;51229;51.980;6.722;2022-12-07T02:59:45;9.07;;;4.30;;
64795;SDS011;51229;51.980;6.722;2022-12-07T03:07:54;8.60;;;3.60;;
64795;SDS011;51229;51.980;6.722;2022-12-07T03:10:42;8.98;;;4.38;;
64795;SDS011;51229;51.980;6.722;2022-12-07T03:18:38;7.35;;;4.10;;
64795;SDS011;51229;51.980;6.722;2022-12-07T03:21:09;11.13;;;3.85;;
64795;SDS011;51229;51.980;6.722;2022-12-07T03:23:39;8.20;;;3.80;;
64795;SDS011;51229;51.980;6.722;2022-12-07T03:26:06;6.65;;;3.60;;
64795;SDS011;51229;51.980;6.722;2022-12-07T03:28:36;10.55;;;3.50;;
64795;SDS011;51229;51.980;6.722;2022-12-07T03:33:40;8.02;;;3.55;;
64795;SDS011;51229;51.980;6.722;2022-12-07T03:36:22;7.35;;;3.40;;
64795;SDS011;51229;51.980;6.722;2022-12-07T03:38:55;7.50;;;3.53;;
64795;SDS011;51229;51.980;6.722;2022-12-07T03:41:30;6.70;;;4.30;;
64795;SDS011;51229;51.980;6.722;2022-12-07T03:43:57;7.10;;;3.92;;
64795;SDS011;51229;51.980;6.722;2022-12-07T03:46:31;8.38;;;3.80;;
64795;SDS011;51229;51.980;6.722;2022-12-07T03:52:02;7.15;;;3.22;;
64795;SDS011;51229;51.980;6.722;2022-12-07T03:57:20;7.85;;;3.67;;
64795;SDS011;51229;51.980;6.722;2022-12-07T03:59:49;8.70;;;3.88;;
64795;SDS011;51229;51.980;6.722;2022-12-07T04:02:16;10.75;;;3.65;;
64795;SDS011;51229;51.980;6.722;2022-12-07T04:04:42;7.68;;;3.50;;
64795;SDS011;51229;51.980;6.722;2022-12-07T04:07:08;6.57;;;3.28;;
64795;SDS011;51229;51.980;6.722;2022-12-07T04:09:34;6.85;;;3.33;;
64795;SDS011;51229;51.980;6.722;2022-12-07T04:12:00;6.45;;;3.17;;
64795;SDS011;51229;51.980;6.722;2022-12-07T04:14:25;8.45;;;3.17;;
64795;SDS011;51229;51.980;6.722;2022-12-07T04:16:52;6.78;;;2.85;;
64795;SDS011;51229;51.980;6.722;2022-12-07T04:19:23;7.75;;;3.35;;
64795;SDS011;51229;51.980;6.722;2022-12-07T04:21:50;7.30;;;3.13;;
64795;SDS011;51229;51.980;6.722;2022-12-07T04:24:16;8.63;;;3.20;;
64795;SDS011;51229;51.980;6.722;2022-12-07T04:26:42;9.55;;;3.42;;
64795;SDS011;51229;51.980;6.722;2022-12-07T04:29:09;6.95;;;3.22;;
64795;SDS011;51229;51.980;6.722;2022-12-07T04:31:35;12.52;;;3.75;;
64795;SDS011;51229;51.980;6.722;2022-12-07T04:34:01;7.15;;;3.15;;
64795;SDS011;51229;51.980;6.722;2022-12-07T04:36:28;7.95;;;2.88;;
64795;SDS011;51229;51.980;6.722;2022-12-07T04:38:54;8.18;;;3.67;;
64795;SDS011;51229;51.980;6.722;2022-12-07T04:41:20;6.30;;;3.08;;
64795;SDS011;51229;51.980;6.722;2022-12-07T04:44:00;7.60;;;3.45;;
64795;SDS011;51229;51.980;6.722;2022-12-07T04:46:28;5.60;;;3.00;;
64795;SDS011;51229;51.980;6.722;2022-12-07T04:48:55;9.95;;;2.95;;
64795;SDS011;51229;51.980;6.722;2022-12-07T04:51:22;7.50;;;2.67;;
64795;SDS011;51229;51.980;6.722;2022-12-07T04:53:49;9.63;;;3.15;;
64795;SDS011;51229;51.980;6.722;2022-12-07T04:56:16;6.95;;;2.63;;
64795;SDS011;51229;51.980;6.722;2022-12-07T04:58:43;8.55;;;2.50;;
64795;SDS011;51229;51.980;6.722;2022-12-07T05:01:10;5.50;;;1.95;;
64795;SDS011;51229;51.980;6.722;2022-12-07T05:03:36;7.28;;;1.98;;
64795;SDS011;51229;51.980;6.722;2022-12-07T05:06:03;6.63;;;2.20;;
64795;SDS011;51229;51.980;6.722;2022-12-07T05:08:29;5.88;;;2.08;;
64795;SDS011;51229;51.980;6.722;2022-12-07T05:10:56;8.07;;;2.17;;
64795;SDS011;51229;51.980;6.722;2022-12-07T05:13:22;6.05;;;2.40;;
64795;SDS011;51229;51.980;6.722;2022-12-07T05:15:48;6.35;;;2.35;;
64795;SDS011;51229;51.980;6.722;2022-12-07T05:18:14;7.00;;;2.58;;
64795;SDS011;51229;51.980;6.722;2022-12-07T05:20:40;8.02;;;2.70;;
64795;SDS011;51229;51.980;6.722;2022-12-07T05:23:06;8.65;;;3.15;;
64795;SDS011;51229;51.980;6.722;2022-12-07T05:25:32;10.45;;;3.35;;
64795;SDS011;51229;51.980;6.722;2022-12-07T05:27:58;6.95;;;2.67;;
64795;SDS011;51229;51.980;6.722;2022-12-07T05:30:24;7.85;;;2.90;;
64795;SDS011;51229;51.980;6.722;2022-12-07T05:32:51;6.75;;;3.05;;
64795;SDS011;51229;51.980;6.722;2022-12-07T05:35:17;8.00;;;3.10;;
64795;SDS011;51229;51.980;6.722;2022-12-07T05:37:43;6.97;;;2.70;;
64795;SDS011;51229;51.980;6.722;2022-12-07T05:40:10;5.18;;;2.65;;
64795;SDS011;51229;51.980;6.722;2022-12-07T05:42:37;8.48;;;3.10;;
64795;SDS011;51229;51.980;6.722;2022-12-07T05:45:03;9.10;;;3.00;;
64795;SDS011;51229;51.980;6.722;2022-12-07T05:47:29;7.15;;;3.00;;
64795;SDS011;51229;51.980;6.722;2022-12-07T05:49:54;7.47;;;2.80;;
64795;SDS011;51229;51.980;6.722;2022-12-07T05:52:20;7.85;;;2.75;;
64795;SDS011;51229;51.980;6.722;2022-12-07T05:54:46;6.07;;;2.60;;
64795;SDS011;51229;51.980;6.722;2022-12-07T05:57:12;8.95;;;3.38;;
64795;SDS011;51229;51.980;6.722;2022-12-07T05:59:37;6.10;;;2.80;;
64795;SDS011;51229;51.980;6.722;2022-12-07T06:02:05;7.43;;;2.80;;
64795;SDS011;51229;51.980;6.722;2022-12-07T06:04:44;8.68;;;3.08;;
64795;SDS011;51229;51.980;6.722;2022-12-07T06:07:12;8.35;;;3.08;;
64795;SDS011;51229;51.980;6.722;2022-12-07T06:09:40;7.00;;;3.15;;
64795;SDS011;51229;51.980;6.722;2022-12-07T06:12:06;8.63;;;3.42;;
64795;SDS011;51229;51.980;6.722;2022-12-07T06:14:52;7.50;;;2.78;;
64795;SDS011;51229;51.980;6.722;2022-12-07T06:17:18;11.23;;;3.35;;
64795;SDS011;51229;51.980;6.722;2022-12-07T06:19:44;7.88;;;2.85;;
64795;SDS011;51229;51.980;6.722;2022-12-07T06:22:09;7.57;;;3.40;;
64795;SDS011;51229;51.980;6.722;2022-12-07T06:24:36;6.55;;;3.10;;
64795;SDS011;51229;51.980;6.722;2022-12-07T06:27:06;7.32;;;2.83;;
64795;SDS011;51229;51.980;6.722;2022-12-07T06:29:32;5.80;;;3.10;;
64795;SDS011;51229;51.980;6.722;2022-12-07T06:31:57;10.00;;;3.22;;
64795;SDS011;51229;51.980;6.722;2022-12-07T06:34:23;8.23;;;3.40;;
64795;SDS011;51229;51.980;6.722;2022-12-07T06:36:50;8.23;;;3.40;;
64795;SDS011;51229;51.980;6.722;2022-12-07T06:39:19;7.97;;;3.25;;
64795;SDS011;51229;51.980;6.722;2022-12-07T06:41:45;6.57;;;3.10;;
64795;SDS011;51229;51.980;6.722;2022-12-07T06:44:11;7.47;;;3.42;;
64795;SDS011;51229;51.980;6.722;2022-12-07T06:46:37;6.07;;;3.08;;
64795;SDS011;51229;51.980;6.722;2022-12-07T06:49:03;8.65;;;3.50;;
64795;SDS011;51229;51.980;6.722;2022-12-07T06:51:29;9.18;;;3.17;;
64795;SDS011;51229;51.980;6.722;2022-12-07T06:53:56;8.15;;;3.17;;
64795;SDS011;51229;51.980;6.722;2022-12-07T06:56:21;6.75;;;3.08;;
64795;SDS011;51229;51.980;6.722;2022-12-07T06:58:47;6.95;;;3.08;;
64795;SDS011;51229;51.980;6.722;2022-12-07T07:01:16;7.28;;;3.05;;
64795;SDS011;51229;51.980;6.722;2022-12-07T07:03:43;6.78;;;3.00;;
64795;SDS011;51229;51.980;6.722;2022-12-07T07:06:10;6.97;;;2.83;;
64795;SDS011;51229;51.980;6.722;2022-12-07T07:08:36;5.65;;;3.40;;
64795;SDS011;51229;51.980;6.722;2022-12-07T07:11:03;5.13;;;2.58;;
64795;SDS011;51229;51.980;6.722;2022-12-07T07:13:28;7.35;;;3.60;;
64795;SDS011;51229;51.980;6.722;2022-12-07T07:15:54;11.38;;;3.40;;
64795;SDS011;51229;51.980;6.722;2022-12-07T07:18:21;8.15;;;3.67;;
64795;SDS011;51229;51.980;6.722;2022-12-07T07:20:46;8.55;;;3.25;;
64795;SDS011;51229;51.980;6.722;2022-12-07T07:23:12;8.27;;;3.20;;
64795;SDS011;51229;51.980;6.722;2022-12-07T07:25:38;7.10;;;3.28;;
64795;SDS011;51229;51.980;6.722;2022-12-07T07:28:04;8.55;;;3.60;;
64795;SDS011;51229;51.980;6.722;2022-12-07T07:30:30;6.78;;;2.97;;
64795;SDS011;51229;51.980;6.722;2022-12-07T07:32:59;10.82;;;3.40;;
64795;SDS011;51229;51.980;6.722;2022-12-07T07:35:27;5.30;;;2.67;;
64795;SDS011;51229;51.980;6.722;2022-12-07T07:37:53;6.70;;;2.90;;
64795;SDS011;51229;51.980;6.722;2022-12-07T07:40:19;11.00;;;3.05;;
64795;SDS011;51229;51.980;6.722;2022-12-07T07:42:48;8.70;;;3.15;;
64795;SDS011;51229;51.980;6.722;2022-12-07T07:45:15;7.68;;;3.40;;
64795;SDS011;51229;51.980;6.722;2022-12-07T07:47:41;7.60;;;3.78;;
64795;SDS011;51229;51.980;6.722;2022-12-07T07:50:07;6.75;;;2.97;;
64795;SDS011;51229;51.980;6.722;2022-12-07T07:52:33;7.88;;;3.22;;
64795;SDS011;51229;51.980;6.722;2022-12-07T07:54:58;7.28;;;3.08;;
64795;SDS011;51229;51.980;6.722;2022-12-07T07:57:24;7.75;;;3.58;;
64795;SDS011;51229;51.980;6.722;2022-12-07T07:59:49;11.35;;;4.07;;
64795;SDS011;51229;51.980;6.722;2022-12-07T08:02:16;11.57;;;3.40;;
64795;SDS011;51229;51.980;6.722;2022-12-07T08:04:43;7.53;;;2.92;;
64795;SDS011;51229;51.980;6.722;2022-12-07T08:07:10;7.88;;;3.28;;
64795;SDS011;51229;51.980;6.722;2022-12-07T08:09:36;8.27;;;3.67;;
64795;SDS011;51229;51.980;6.722;2022-12-07T08:12:02;10.63;;;3.70;;
64795;SDS011;51229;51.980;6.722;2022-12-07T08:14:27;7.53;;;3.72;;
64795;SDS011;51229;51.980;6.722;2022-12-07T08:16:53;7.78;;;3.85;;
64795;SDS011;51229;51.980;6.722;2022-12-07T08:19:19;9.77;;;3.83;;
64795;SDS011;51229;51.980;6.722;2022-12-07T08:21:45;8.85;;;4.05;;
64795;SDS011;51229;51.980;6.722;2022-12-07T08:24:11;10.93;;;4.07;;
64795;SDS011;51229;51.980;6.722;2022-12-07T08:26:37;10.00;;;3.75;;
64795;SDS011;51229;51.980;6.722;2022-12-07T08:29:03;9.13;;;3.80;;
64795;SDS011;51229;51.980;6.722;2022-12-07T08:31:28;15.30;;;4.20;;
64795;SDS011;51229;51.980;6.722;2022-12-07T08:33:54;9.75;;;3.67;;
64795;SDS011;51229;51.980;6.722;2022-12-07T08:36:20;11.75;;;4.20;;
64795;SDS011;51229;51.980;6.722;2022-12-07T08:38:47;7.72;;;3.17;;
64795;SDS011;51229;51.980;6.722;2022-12-07T08:41:13;6.68;;;3.55;;
64795;SDS011;51229;51.980;6.722;2022-12-07T08:43:40;8.95;;;3.70;;
64795;SDS011;51229;51.980;6.722;2022-12-07T08:49:13;7.85;;;3.60;;
64795;SDS011;51229;51.980;6.722;2022-12-07T08:52:03;9.43;;;3.50;;
64795;SDS011;51229;51.980;6.722;2022-12-07T08:54:30;16.65;;;4.72;;
64795;SDS011;51229;51.980;6.722;2022-12-07T08:56:56;8.07;;;3.90;;
64795;SDS011;51229;51.980;6.722;2022-12-07T08:59:22;8.48;;;3.80;;
64795;SDS011;51229;51.980;6.722;2022-12-07T09:01:48;8.48;;;3.88;;
64795;SDS011;51229;51.980;6.722;2022-12-07T09:04:14;10.20;;;3.90;;
64795;SDS011;51229;51.980;6.722;2022-12-07T09:06:40;7.97;;;3.00;;
64795;SDS011;51229;51.980;6.722;2022-12-07T09:09:07;7.95;;;3.67;;
64795;SDS011;51229;51.980;6.722;2022-12-07T09:11:35;10.68;;;4.25;;
64795;SDS011;51229;51.980;6.722;2022-12-07T09:14:00;15.73;;;4.15;;
64795;SDS011;51229;51.980;6.722;2022-12-07T09:16:26;9.68;;;4.05;;
64795;SDS011;51229;51.980;6.722;2022-12-07T09:18:52;10.15;;;4.57;;
64795;SDS011;51229;51.980;6.722;2022-12-07T09:21:17;8.40;;;4.25;;
64795;SDS011;51229;51.980;6.722;2022-12-07T09:23:43;10.52;;;4.50;;
64795;SDS011;51229;51.980;6.722;2022-12-07T09:26:09;9.25;;;3.40;;
64795;SDS011;51229;51.980;6.722;2022-12-07T09:28:35;9.43;;;3.80;;
64795;SDS011;51229;51.980;6.722;2022-12-07T09:31:02;9.75;;;3.15;;
64795;SDS011;51229;51.980;6.722;2022-12-07T09:33:28;9.27;;;2.83;;
64795;SDS011;51229;51.980;6.722;2022-12-07T09:35:54;5.93;;;2.83;;
64795;SDS011;51229;51.980;6.722;2022-12-07T09:38:19;7.22;;;3.25;;
64795;SDS011;51229;51.980;6.722;2022-12-07T09:40:46;14.20;;;2.90;;
64795;SDS011;51229;51.980;6.722;2022-12-07T09:43:16;6.88;;;2.17;;
64795;SDS011;51229;51.980;6.722;2022-12-07T09:45:45;8.20;;;3.00;;
64795;SDS011;51229;51.980;6.722;2022-12-07T09:48:17;6.85;;;3.05;;
64795;SDS011;51229;51.980;6.722;2022-12-07T09:50:50;9.32;;;2.90;;
64795;SDS011;51229;51.980;6.722;2022-12-07T09:53:22;6.72;;;2.78;;
64795;SDS011;51229;51.980;6.722;2022-12-07T09:55:51;7.90;;;2.60;;
64795;SDS011;51229;51.980;6.722;2022-12-07T09:58:25;10.20;;;2.78;;
64795;SDS011;51229;51.980;6.722;2022-12-07T10:01:00;7.05;;;2.67;;
64795;SDS011;51229;51.980;6.722;2022-12-07T10:03:50;5.95;;;2.40;;
64795;SDS011;51229;51.980;6.722;2022-12-07T10:06:16;6.28;;;2.72;;
64795;SDS011;51229;51.980;6.722;2022-12-07T10:08:42;7.15;;;3.20;;
64795;SDS011;51229;51.980;6.722;2022-12-07T10:11:08;9.68;;;3.13;;
64795;SDS011;51229;51.980;6.722;2022-12-07T10:24:40;6.22;;;1.73;;
64795;SDS011;51229;51.980;6.722;2022-12-07T10:27:29;4.05;;;1.75;;
64795;SDS011;51229;51.980;6.722;2022-12-07T10:29:56;5.43;;;1.70;;
64795;SDS011;51229;51.980;6.722;2022-12-07T10:32:31;5.18;;;1.75;;
64795;SDS011;51229;51.980;6.722;2022-12-07T10:37:46;5.15;;;1.40;;
64795;SDS011;51229;51.980;6.722;2022-12-07T10:40:29;3.72;;;1.50;;
64795;SDS011;51229;51.980;6.722;2022-12-07T10:43:21;5.53;;;1.98;;
64795;SDS011;51229;51.980;6.722;2022-12-07T10:48:55;5.80;;;1.60;;
64795;SDS011;51229;51.980;6.722;2022-12-07T10:54:04;5.68;;;1.45;;
64795;SDS011;51229;51.980;6.722;2022-12-07T10:56:50;5.63;;;1.83;;
64795;SDS011;51229;51.980;6.722;2022-12-07T11:08:00;5.22;;;1.50;;
64795;SDS011;51229;51.980;6.722;2022-12-07T11:16:49;5.85;;;1.38;;
64795;SDS011;51229;51.980;6.722;2022-12-07T11:19:49;5.88;;;1.50;;
64795;SDS011;51229;51.980;6.722;2022-12-07T11:22:29;8.98;;;1.45;;
64795;SDS011;51229;51.980;6.722;2022-12-07T11:25:10;5.68;;;1.58;;
64795;SDS011;51229;51.980;6.722;2022-12-07T11:41:48;3.92;;;1.45;;
64795;SDS011;51229;51.980;6.722;2022-12-07T11:47:08;3.45;;;1.13;;
64795;SDS011;51229;51.980;6.722;2022-12-07T11:49:54;3.92;;;1.20;;
64795;SDS011;51229;51.980;6.722;2022-12-07T11:53:11;6.70;;;1.55;;
64795;SDS011;51229;51.980;6.722;2022-12-07T11:55:40;4.88;;;1.20;;
64795;SDS011;51229;51.980;6.722;2022-12-07T11:58:18;3.85;;;1.45;;
64795;SDS011;51229;51.980;6.722;2022-12-07T12:03:40;6.18;;;1.52;;
64795;SDS011;51229;51.980;6.722;2022-12-07T12:06:40;3.95;;;1.30;;
64795;SDS011;51229;51.980;6.722;2022-12-07T12:20:22;4.43;;;1.20;;
64795;SDS011;51229;51.980;6.722;2022-12-07T12:23:06;2.83;;;1.10;;
64795;SDS011;51229;51.980;6.722;2022-12-07T12:25:37;3.50;;;1.15;;
64795;SDS011;51229;51.980;6.722;2022-12-07T12:28:35;4.90;;;1.20;;
64795;SDS011;51229;51.980;6.722;2022-12-07T12:31:07;3.92;;;1.00;;
64795;SDS011;51229;51.980;6.722;2022-12-07T12:33:37;4.75;;;1.15;;
64795;SDS011;51229;51.980;6.722;2022-12-07T12:36:27;6.97;;;1.60;;
64795;SDS011;51229;51.980;6.722;2022-12-07T12:46:58;4.95;;;1.38;;
64795;SDS011;51229;51.980;6.722;2022-12-07T12:54:38;5.25;;;1.25;;
64795;SDS011;51229;51.980;6.722;2022-12-07T12:57:15;7.28;;;1.88;;
64795;SDS011;51229;51.980;6.722;2022-12-07T13:02:19;5.43;;;1.52;;
64795;SDS011;51229;51.980;6.722;2022-12-07T13:04:59;4.07;;;1.60;;
64795;SDS011;51229;51.980;6.722;2022-12-07T13:15:41;6.47;;;2.00;;
64795;SDS011;51229;51.980;6.722;2022-12-07T13:20:50;7.65;;;1.70;;
64795;SDS011;51229;51.980;6.722;2022-12-07T13:23:18;6.43;;;2.10;;
64795;SDS011;51229;51.980;6.722;2022-12-07T13:28:38;6.63;;;2.35;;
64795;SDS011;51229;51.980;6.722;2022-12-07T13:31:11;6.95;;;1.70;;
64795;SDS011;51229;51.980;6.722;2022-12-07T13:33:38;5.95;;;1.90;;
64795;SDS011;51229;51.980;6.722;2022-12-07T13:36:04;6.53;;;1.80;;
64795;SDS011;51229;51.980;6.722;2022-12-07T13:39:18;6.95;;;1.80;;
64795;SDS011;51229;51.980;6.722;2022-12-07T13:41:41;5.53;;;1.92;;
64795;SDS011;51229;51.980;6.722;2022-12-07T13:44:12;7.10;;;1.80;;
64795;SDS011;51229;51.980;6.722;2022-12-07T13:49:19;4.55;;;1.70;;
64795;SDS011;51229;51.980;6.722;2022-12-07T13:51:50;9.93;;;2.25;;
64795;SDS011;51229;51.980;6.722;2022-12-07T13:54:16;6.18;;;2.10;;
64795;SDS011;51229;51.980;6.722;2022-12-07T13:56:43;6.82;;;2.33;;
64795;SDS011;51229;51.980;6.722;2022-12-07T13:59:24;7.18;;;2.13;;
64795;SDS011;51229;51.980;6.722;2022-12-07T14:01:52;5.13;;;2.00;;
64795;SDS011;51229;51.980;6.722;2022-12-07T14:04:19;9.88;;;2.28;;
64795;SDS011;51229;51.980;6.722;2022-12-07T14:06:59;6.32;;;1.80;;
64795;SDS011;51229;51.980;6.722;2022-12-07T14:09:27;7.30;;;1.92;;
64795;SDS011;51229;51.980;6.722;2022-12-07T14:11:55;5.32;;;1.52;;
64795;SDS011;51229;51.980;6.722;2022-12-07T14:14:23;5.60;;;1.80;;
64795;SDS011;51229;51.980;6.722;2022-12-07T14:17:12;6.28;;;1.80;;
64795;SDS011;51229;51.980;6.722;2022-12-07T14:19:52;7.20;;;1.88;;
64795;SDS011;51229;51.980;6.722;2022-12-07T14:24:51;7.10;;;2.35;;
64795;SDS011;51229;51.980;6.722;2022-12-07T14:27:23;5.00;;;2.28;;
64795;SDS011;51229;51.980;6.722;2022-12-07T14:29:55;6.07;;;1.98;;
64795;SDS011;51229;51.980;6.722;2022-12-07T14:32:23;4.78;;;1.73;;
64795;SDS011;51229;51.980;6.722;2022-12-07T14:34:54;7.25;;;2.25;;
64795;SDS011;51229;51.980;6.722;2022-12-07T14:37:20;6.25;;;2.10;;
64795;SDS011;51229;51.980;6.722;2022-12-07T14:39:45;7.53;;;2.38;;
64795;SDS011;51229;51.980;6.722;2022-12-07T14:42:11;5.20;;;2.17;;
64795;SDS011;51229;51.980;6.722;2022-12-07T14:44:37;4.80;;;2.10;;
64795;SDS011;51229;51.980;6.722;2022-12-07T14:47:02;8.80;;;2.08;;
64795;SDS011;51229;51.980;6.722;2022-12-07T14:49:28;7.85;;;2.05;;
64795;SDS011;51229;51.980;6.722;2022-12-07T14:51:54;5.95;;;1.92;;
64795;SDS011;51229;51.980;6.722;2022-12-07T14:54:20;6.80;;;2.00;;
64795;SDS011;51229;51.980;6.722;2022-12-07T14:56:50;5.15;;;1.90;;
64795;SDS011;51229;51.980;6.722;2022-12-07T14:59:16;7.72;;;2.00;;
64795;SDS011;51229;51.980;6.722;2022-12-07T15:01:42;9.25;;;2.13;;
64795;SDS011;51229;51.980;6.722;2022-12-07T15:04:08;6.47;;;2.13;;
64795;SDS011;51229;51.980;6.722;2022-12-07T15:06:34;8.13;;;2.10;;
64795;SDS011;51229;51.980;6.722;2022-12-07T15:09:02;10.40;;;2.00;;
64795;SDS011;51229;51.980;6.722;2022-12-07T15:11:28;6.18;;;2.00;;
64795;SDS011;51229;51.980;6.722;2022-12-07T15:13:54;5.22;;;2.25;;
64795;SDS011;51229;51.980;6.722;2022-12-07T15:19:05;7.68;;;2.53;;
64795;SDS011;51229;51.980;6.722;2022-12-07T15:21:35;6.90;;;2.30;;
64795;SDS011;51229;51.980;6.722;2022-12-07T15:24:01;9.10;;;2.38;;
64795;SDS011;51229;51.980;6.722;2022-12-07T15:26:26;7.78;;;2.88;;
64795;SDS011;51229;51.980;6.722;2022-12-07T15:28:53;8.63;;;2.78;;
64795;SDS011;51229;51.980;6.722;2022-12-07T15:31:19;6.10;;;2.30;;
64795;SDS011;51229;51.980;6.722;2022-12-07T15:33:45;9.52;;;2.50;;
64795;SDS011;51229;51.980;6.722;2022-12-07T15:36:17;8.27;;;2.35;;
64795;SDS011;51229;51.980;6.722;2022-12-07T15:38:48;6.03;;;2.50;;
64795;SDS011;51229;51.980;6.722;2022-12-07T15:41:14;7.05;;;2.85;;
64795;SDS011;51229;51.980;6.722;2022-12-07T15:43:39;10.48;;;2.90;;
64795;SDS011;51229;51.980;6.722;2022-12-07T15:46:28;11.32;;;2.78;;
64795;SDS011;51229;51.980;6.722;2022-12-07T15:48:58;7.30;;;2.95;;
64795;SDS011;51229;51.980;6.722;2022-12-07T15:51:24;9.73;;;2.80;;
64795;SDS011;51229;51.980;6.722;2022-12-07T15:53:50;6.78;;;2.53;;
64795;SDS011;51229;51.980;6.722;2022-12-07T15:56:15;6.45;;;2.10;;
64795;SDS011;51229;51.980;6.722;2022-12-07T15:58:41;6.32;;;2.58;;
64795;SDS011;51229;51.980;6.722;2022-12-07T16:01:13;4.72;;;2.00;;
64795;SDS011;51229;51.980;6.722;2022-12-07T16:03:41;6.75;;;2.15;;
64795;SDS011;51229;51.980;6.722;2022-12-07T16:06:07;5.03;;;1.67;;
64795;SDS011;51229;51.980;6.722;2022-12-07T16:08:33;8.27;;;2.28;;
64795;SDS011;51229;51.980;6.722;2022-12-07T16:10:59;7.05;;;1.95;;
64795;SDS011;51229;51.980;6.722;2022-12-07T16:13:25;5.63;;;2.05;;
64795;SDS011;51229;51.980;6.722;2022-12-07T16:15:50;3.58;;;1.63;;
64795;SDS011;51229;51.980;6.722;2022-12-07T16:18:16;4.82;;;1.90;;
64795;SDS011;51229;51.980;6.722;2022-12-07T16:20:42;4.60;;;1.63;;
64795;SDS011;51229;51.980;6.722;2022-12-07T16:23:07;5.35;;;1.63;;
64795;SDS011;51229;51.980;6.722;2022-12-07T16:25:33;3.88;;;1.52;;
64795;SDS011;51229;51.980;6.722;2022-12-07T16:27:59;5.75;;;1.90;;
64795;SDS011;51229;51.980;6.722;2022-12-07T16:30:24;6.32;;;1.90;;
64795;SDS011;51229;51.980;6.722;2022-12-07T16:32:50;4.10;;;1.77;;
64795;SDS011;51229;51.980;6.722;2022-12-07T16:35:17;6.15;;;2.25;;
64795;SDS011;51229;51.980;6.722;2022-12-07T16:37:45;5.07;;;1.80;;
64795;SDS011;51229;51.980;6.722;2022-12-07T16:40:11;5.15;;;2.10;;
64795;SDS011;51229;51.980;6.722;2022-12-07T16:42:37;4.07;;;2.15;;
64795;SDS011;51229;51.980;6.722;2022-12-07T16:45:03;8.18;;;2.10;;
64795;SDS011;51229;51.980;6.722;2022-12-07T16:47:29;6.32;;;2.33;;
64795;SDS011;51229;51.980;6.722;2022-12-07T16:49:55;7.90;;;2.40;;
64795;SDS011;51229;51.980;6.722;2022-12-07T16:52:21;5.38;;;2.20;;
64795;SDS011;51229;51.980;6.722;2022-12-07T16:54:47;8.00;;;2.30;;
64795;SDS011;51229;51.980;6.722;2022-12-07T16:57:14;6.43;;;2.30;;
64795;SDS011;51229;51.980;6.722;2022-12-07T16:59:40;6.95;;;2.35;;
64795;SDS011;51229;51.980;6.722;2022-12-07T17:02:08;4.78;;;2.03;;
64795;SDS011;51229;51.980;6.722;2022-12-07T17:04:36;5.25;;;2.33;;
64795;SDS011;51229;51.980;6.722;2022-12-07T17:07:04;5.28;;;2.20;;
64795;SDS011;51229;51.980;6.722;2022-12-07T17:09:30;5.68;;;2.20;;
64795;SDS011;51229;51.980;6.722;2022-12-07T17:11:56;4.97;;;1.90;;
64795;SDS011;51229;51.980;6.722;2022-12-07T17:14:22;4.75;;;2.20;;
64795;SDS011;51229;51.980;6.722;2022-12-07T17:17:06;6.32;;;2.28;;
64795;SDS011;51229;51.980;6.722;2022-12-07T17:19:32;6.32;;;2.63;;